createdAt,value
2019-06-13T00:01:20.979Z,0.00
2019-06-13T00:01:49.406Z,0.00
2019-06-13T00:02:49.897Z,0.00
2019-06-13T00:03:49.496Z,0.00
2019-06-13T00:04:48.882Z,0.00
2019-06-13T00:05:49.772Z,0.00
2019-06-13T00:06:48.543Z,0.00
2019-06-13T00:07:49.744Z,0.00
2019-06-13T00:08:49.064Z,0.00
2019-06-13T00:09:49.702Z,0.00
2019-06-13T00:10:48.981Z,0.00
2019-06-13T00:11:49.182Z,0.00
2019-06-13T00:12:49.162Z,0.00
2019-06-13T00:13:49.577Z,0.00
2019-06-13T00:14:49.224Z,0.00
2019-06-13T00:15:48.996Z,0.00
2019-06-13T00:16:49.578Z,0.00
2019-06-13T00:17:49.281Z,0.00
2019-06-13T00:18:49.962Z,0.00
2019-06-13T00:19:49.520Z,0.00
2019-06-13T00:20:49.705Z,0.00
2019-06-13T00:21:49.816Z,0.00
2019-06-13T00:22:49.834Z,0.00
2019-06-13T00:23:49.361Z,0.00
2019-06-13T00:24:48.826Z,0.00
2019-06-13T00:25:49.545Z,0.00
2019-06-13T00:26:48.702Z,0.00
2019-06-13T00:27:49.021Z,0.00
2019-06-13T00:28:49.153Z,0.00
2019-06-13T00:29:49.258Z,0.00
2019-06-13T00:30:49.101Z,0.00
2019-06-13T00:31:49.370Z,0.00
2019-06-13T00:32:49.466Z,0.00
2019-06-13T00:33:49.258Z,0.00
2019-06-13T00:34:49.215Z,0.00
2019-06-13T00:35:57.292Z,0.00
2019-06-13T00:36:49.078Z,0.00
2019-06-13T00:37:48.783Z,0.00
2019-06-13T00:38:49.278Z,0.00
2019-06-13T00:39:49.152Z,0.00
2019-06-13T00:40:48.863Z,0.00
2019-06-13T00:41:49.262Z,0.00
2019-06-13T00:42:48.764Z,0.00
2019-06-13T00:43:48.680Z,0.00
2019-06-13T00:44:49.288Z,0.00
2019-06-13T00:45:48.884Z,0.00
2019-06-13T00:46:49.638Z,0.00
2019-06-13T00:47:48.984Z,0.00
2019-06-13T00:48:48.842Z,0.00
2019-06-13T00:49:48.747Z,0.00
2019-06-13T00:50:49.439Z,0.00
2019-06-13T00:51:48.768Z,0.00
2019-06-13T00:52:49.389Z,0.00
2019-06-13T00:53:49.643Z,0.00
2019-06-13T00:54:48.963Z,0.00
2019-06-13T00:55:48.898Z,0.00
2019-06-13T00:56:49.416Z,0.00
2019-06-13T00:57:48.709Z,0.00
2019-06-13T00:58:48.771Z,0.00
2019-06-13T00:59:46.719Z,0.00
2019-06-13T01:00:49.364Z,0.00
2019-06-13T01:01:49.559Z,0.00
2019-06-13T01:02:46.666Z,0.00
2019-06-13T01:03:49.297Z,0.00
2019-06-13T01:04:49.703Z,0.00
2019-06-13T01:05:49.527Z,0.00
2019-06-13T01:06:48.548Z,0.00
2019-06-13T01:07:49.567Z,0.00
2019-06-13T01:08:46.560Z,0.00
2019-06-13T01:09:48.603Z,0.00
2019-06-13T01:10:46.533Z,0.00
2019-06-13T01:11:48.610Z,0.00
2019-06-13T01:12:46.489Z,0.00
2019-06-13T01:13:49.120Z,0.00
2019-06-13T01:14:46.469Z,0.00
2019-06-13T01:15:46.440Z,0.00
2019-06-13T01:16:48.979Z,0.00
2019-06-13T01:17:46.403Z,0.00
2019-06-13T01:18:48.427Z,0.00
2019-06-13T01:19:46.368Z,0.00
2019-06-13T01:20:48.979Z,0.00
2019-06-13T01:21:46.332Z,0.00
2019-06-13T01:22:48.641Z,0.00
2019-06-13T01:23:48.782Z,0.00
2019-06-13T01:24:46.284Z,0.00
2019-06-13T01:25:49.361Z,0.00
2019-06-13T01:26:46.250Z,0.00
2019-06-13T01:27:49.562Z,0.00
2019-06-13T01:28:46.211Z,0.00
2019-06-13T01:29:48.667Z,0.00
2019-06-13T01:30:46.182Z,0.00
2019-06-13T01:31:48.392Z,0.00
2019-06-13T01:32:46.155Z,0.00
2019-06-13T01:33:46.127Z,0.00
2019-06-13T01:34:46.108Z,0.00
2019-06-13T01:35:46.090Z,0.00
2019-06-13T01:36:46.072Z,0.00
2019-06-13T01:37:48.554Z,0.00
2019-06-13T01:38:46.038Z,0.00
2019-06-13T01:39:46.021Z,0.00
2019-06-13T01:40:48.684Z,0.00
2019-06-13T01:41:48.683Z,0.00
2019-06-13T01:42:45.968Z,0.00
2019-06-13T01:43:45.951Z,0.00
2019-06-13T01:44:45.932Z,0.00
2019-06-13T01:45:48.680Z,0.00
2019-06-13T01:46:45.898Z,0.00
2019-06-13T01:47:48.846Z,0.00
2019-06-13T01:48:45.868Z,0.00
2019-06-13T01:49:45.847Z,0.00
2019-06-13T01:50:45.828Z,0.00
2019-06-13T01:51:45.811Z,0.00
2019-06-13T01:52:45.794Z,0.00
2019-06-13T01:53:45.777Z,0.00
2019-06-13T01:54:45.759Z,0.00
2019-06-13T01:55:45.744Z,0.00
2019-06-13T01:56:45.732Z,0.00
2019-06-13T01:57:45.717Z,0.00
2019-06-13T01:58:45.689Z,0.00
2019-06-13T01:59:45.686Z,0.00
2019-06-13T02:00:45.653Z,0.00
2019-06-13T02:01:45.636Z,0.00
2019-06-13T02:02:45.623Z,0.00
2019-06-13T02:03:45.601Z,0.00
2019-06-13T02:04:45.607Z,0.00
2019-06-13T02:05:45.567Z,0.00
2019-06-13T02:06:57.716Z,0.00
2019-06-13T02:07:45.536Z,0.00
2019-06-13T02:08:45.517Z,0.00
2019-06-13T02:09:45.498Z,0.00
2019-06-13T02:10:45.486Z,0.00
2019-06-13T02:11:45.462Z,0.00
2019-06-13T02:12:45.449Z,0.00
2019-06-13T02:13:45.430Z,0.00
2019-06-13T02:14:45.413Z,0.00
2019-06-13T02:15:45.393Z,0.00
2019-06-13T02:16:56.135Z,0.00
2019-06-13T02:17:45.358Z,0.00
2019-06-13T02:18:45.345Z,0.00
2019-06-13T02:19:45.323Z,0.00
2019-06-13T02:20:45.307Z,0.00
2019-06-13T02:21:45.289Z,0.00
2019-06-13T02:22:45.273Z,0.00
2019-06-13T02:23:45.256Z,0.00
2019-06-13T02:24:45.239Z,0.00
2019-06-13T02:25:45.222Z,0.00
2019-06-13T02:26:45.203Z,0.00
2019-06-13T02:27:45.186Z,0.00
2019-06-13T02:28:45.171Z,0.00
2019-06-13T02:29:45.151Z,0.00
2019-06-13T02:30:45.141Z,0.00
2019-06-13T02:31:55.793Z,0.00
2019-06-13T02:32:45.101Z,0.00
2019-06-13T02:33:45.084Z,0.00
2019-06-13T02:34:45.065Z,0.00
2019-06-13T02:35:45.048Z,0.00
2019-06-13T02:36:45.030Z,0.00
2019-06-13T02:37:45.016Z,0.00
2019-06-13T02:38:44.999Z,0.00
2019-06-13T02:39:44.979Z,0.00
2019-06-13T02:40:44.963Z,0.00
2019-06-13T02:41:44.942Z,0.00
2019-06-13T02:42:44.928Z,0.00
2019-06-13T02:43:44.911Z,0.00
2019-06-13T02:44:44.892Z,0.00
2019-06-13T02:45:44.874Z,0.00
2019-06-13T02:46:44.859Z,0.00
2019-06-13T02:47:44.840Z,0.00
2019-06-13T02:48:44.825Z,0.00
2019-06-13T02:49:44.806Z,0.00
2019-06-13T02:50:44.787Z,0.00
2019-06-13T02:51:44.771Z,0.00
2019-06-13T02:52:44.752Z,0.00
2019-06-13T02:53:44.738Z,0.00
2019-06-13T02:54:44.727Z,0.00
2019-06-13T02:55:44.701Z,0.00
2019-06-13T02:56:44.682Z,0.00
2019-06-13T02:57:44.665Z,0.00
2019-06-13T02:58:44.650Z,0.00
2019-06-13T02:59:44.630Z,0.00
2019-06-13T03:00:44.615Z,0.00
2019-06-13T03:01:44.597Z,0.00
2019-06-13T03:02:44.578Z,0.00
2019-06-13T03:03:44.561Z,0.00
2019-06-13T03:04:44.545Z,0.00
2019-06-13T03:05:44.528Z,0.00
2019-06-13T03:06:44.509Z,0.00
2019-06-13T03:07:45.655Z,0.00
2019-06-13T03:08:44.476Z,0.00
2019-06-13T03:09:44.458Z,0.00
2019-06-13T03:10:44.443Z,0.00
2019-06-13T03:11:44.426Z,0.00
2019-06-13T03:12:44.405Z,0.00
2019-06-13T03:13:44.398Z,0.00
2019-06-13T03:14:44.371Z,5.63
2019-06-13T03:15:44.356Z,5.63
2019-06-13T03:16:44.349Z,5.63
2019-06-13T03:17:44.321Z,5.63
2019-06-13T03:18:44.305Z,5.63
2019-06-13T03:19:44.292Z,5.63
2019-06-13T03:20:44.271Z,5.63
2019-06-13T03:21:44.249Z,5.63
2019-06-13T03:22:44.236Z,5.63
2019-06-13T03:23:44.221Z,5.63
2019-06-13T03:24:44.198Z,11.25
2019-06-13T03:25:44.201Z,11.25
2019-06-13T03:26:44.166Z,11.25
2019-06-13T03:27:44.154Z,11.25
2019-06-13T03:28:44.132Z,11.25
2019-06-13T03:29:44.115Z,11.25
2019-06-13T03:30:44.098Z,11.25
2019-06-13T03:31:44.083Z,16.88
2019-06-13T03:32:44.064Z,16.88
2019-06-13T03:33:44.044Z,16.88
2019-06-13T03:34:44.028Z,16.88
2019-06-13T03:35:44.017Z,16.88
2019-06-13T03:36:43.993Z,16.88
2019-06-13T03:37:57.096Z,22.50
2019-06-13T03:38:43.958Z,22.50
2019-06-13T03:39:43.949Z,22.50
2019-06-13T03:40:43.926Z,22.50
2019-06-13T03:41:43.905Z,22.50
2019-06-13T03:42:43.890Z,28.13
2019-06-13T03:43:43.871Z,28.13
2019-06-13T03:44:43.853Z,28.13
2019-06-13T03:45:43.836Z,28.13
2019-06-13T03:46:43.828Z,33.75
2019-06-13T03:47:43.803Z,33.75
2019-06-13T03:48:43.792Z,33.75
2019-06-13T03:49:43.765Z,39.38
2019-06-13T03:50:43.756Z,39.38
2019-06-13T03:51:43.743Z,39.38
2019-06-13T03:52:43.784Z,39.38
2019-06-13T03:53:43.696Z,45.00
2019-06-13T03:54:43.677Z,45.00
2019-06-13T03:55:43.665Z,45.00
2019-06-13T03:56:43.646Z,50.63
2019-06-13T03:57:43.626Z,50.63
2019-06-13T03:58:43.611Z,50.63
2019-06-13T03:59:43.594Z,56.25
2019-06-13T04:00:43.576Z,56.25
2019-06-13T04:01:43.570Z,56.25
2019-06-13T04:02:43.540Z,56.25
2019-06-13T04:03:43.525Z,56.25
2019-06-13T04:04:43.509Z,56.25
2019-06-13T04:05:43.491Z,56.25
2019-06-13T04:06:43.470Z,56.25
2019-06-13T04:07:43.453Z,56.25
2019-06-13T04:08:43.434Z,56.25
2019-06-13T04:09:43.417Z,61.88
2019-06-13T04:10:43.400Z,61.88
2019-06-13T04:11:43.387Z,67.50
2019-06-13T04:12:43.368Z,67.50
2019-06-13T04:13:43.349Z,67.50
2019-06-13T04:14:43.340Z,73.13
2019-06-13T04:15:43.317Z,78.75
2019-06-13T04:16:43.316Z,78.75
2019-06-13T04:17:43.282Z,84.38
2019-06-13T04:18:43.267Z,90.00
2019-06-13T04:19:43.312Z,90.00
2019-06-13T04:20:43.232Z,90.00
2019-06-13T04:21:43.213Z,90.00
2019-06-13T04:22:43.197Z,95.63
2019-06-13T04:23:43.184Z,95.63
2019-06-13T04:24:43.170Z,95.63
2019-06-13T04:25:43.142Z,95.63
2019-06-13T04:26:43.127Z,95.63
2019-06-13T04:27:43.110Z,101.25
2019-06-13T04:28:43.103Z,101.25
2019-06-13T04:29:43.074Z,101.25
2019-06-13T04:30:46.525Z,101.25
2019-06-13T04:31:43.063Z,101.25
2019-06-13T04:32:43.026Z,106.88
2019-06-13T04:33:43.008Z,112.50
2019-06-13T04:34:42.991Z,112.50
2019-06-13T04:35:42.985Z,112.50
2019-06-13T04:36:42.958Z,118.13
2019-06-13T04:37:42.944Z,123.75
2019-06-13T04:38:42.923Z,135.00
2019-06-13T04:39:42.906Z,140.63
2019-06-13T04:40:42.892Z,151.88
2019-06-13T04:41:42.874Z,157.50
2019-06-13T04:42:42.856Z,163.13
2019-06-13T04:43:42.840Z,174.38
2019-06-13T04:44:42.830Z,185.63
2019-06-13T04:45:42.809Z,185.63
2019-06-13T04:46:42.790Z,185.63
2019-06-13T04:47:42.772Z,185.63
2019-06-13T04:48:42.764Z,180.00
2019-06-13T04:49:42.760Z,180.00
2019-06-13T04:50:42.725Z,174.38
2019-06-13T04:51:42.712Z,168.75
2019-06-13T04:52:42.694Z,168.75
2019-06-13T04:53:42.674Z,168.75
2019-06-13T04:54:42.659Z,151.88
2019-06-13T04:55:42.766Z,146.25
2019-06-13T04:56:42.652Z,146.25
2019-06-13T04:57:42.617Z,140.63
2019-06-13T04:58:42.598Z,140.63
2019-06-13T04:59:42.585Z,140.63
2019-06-13T05:00:42.568Z,168.75
2019-06-13T05:01:42.546Z,230.63
2019-06-13T05:02:42.535Z,264.38
2019-06-13T05:03:42.521Z,135.00
2019-06-13T05:04:42.501Z,196.88
2019-06-13T05:05:42.495Z,157.50
2019-06-13T05:06:42.472Z,129.38
2019-06-13T05:07:42.462Z,112.50
2019-06-13T05:08:50.172Z,101.25
2019-06-13T05:09:42.431Z,112.50
2019-06-13T05:10:42.419Z,101.25
2019-06-13T05:11:42.402Z,106.88
2019-06-13T05:12:42.388Z,135.00
2019-06-13T05:13:42.373Z,163.13
2019-06-13T05:14:44.143Z,225.00
2019-06-13T05:15:42.343Z,225.00
2019-06-13T05:16:42.329Z,151.88
2019-06-13T05:17:42.317Z,151.88
2019-06-13T05:18:42.339Z,185.63
2019-06-13T05:19:42.292Z,225.00
2019-06-13T05:20:42.279Z,247.50
2019-06-13T05:21:42.265Z,225.00
2019-06-13T05:22:42.256Z,202.50
2019-06-13T05:23:42.247Z,230.63
2019-06-13T05:24:42.232Z,264.38
2019-06-13T05:25:42.225Z,258.75
2019-06-13T05:26:42.213Z,264.38
2019-06-13T05:27:42.207Z,258.75
2019-06-13T05:28:42.249Z,258.75
2019-06-13T05:29:42.277Z,247.50
2019-06-13T05:30:42.206Z,202.50
2019-06-13T05:31:42.200Z,168.75
2019-06-13T05:32:42.191Z,180.00
2019-06-13T05:33:42.184Z,225.00
2019-06-13T05:34:42.177Z,264.38
2019-06-13T05:35:42.170Z,270.00
2019-06-13T05:36:42.161Z,270.00
2019-06-13T05:37:42.157Z,270.00
2019-06-13T05:38:42.151Z,270.00
2019-06-13T05:39:42.144Z,275.63
2019-06-13T05:40:42.139Z,275.63
2019-06-13T05:41:42.132Z,275.63
2019-06-13T05:42:42.128Z,281.25
2019-06-13T05:43:51.649Z,281.25
2019-06-13T05:44:42.119Z,286.88
2019-06-13T05:45:47.126Z,286.88
2019-06-13T05:46:42.100Z,292.50
2019-06-13T05:47:42.088Z,298.13
2019-06-13T05:48:42.082Z,303.75
2019-06-13T05:49:42.079Z,309.38
2019-06-13T05:50:42.082Z,309.38
2019-06-13T05:51:42.092Z,320.63
2019-06-13T05:52:42.071Z,331.88
2019-06-13T05:53:42.071Z,337.50
2019-06-13T05:54:42.068Z,348.75
2019-06-13T05:55:42.069Z,365.63
2019-06-13T05:56:42.058Z,371.25
2019-06-13T05:57:42.059Z,393.75
2019-06-13T05:58:42.057Z,405.00
2019-06-13T05:59:44.418Z,427.50
2019-06-13T06:00:42.048Z,444.38
2019-06-13T06:01:42.046Z,466.88
2019-06-13T06:02:42.062Z,500.63
2019-06-13T06:03:42.045Z,511.88
2019-06-13T06:04:42.348Z,534.38
2019-06-13T06:05:42.044Z,556.88
2019-06-13T06:06:42.041Z,573.75
2019-06-13T06:07:42.034Z,585.00
2019-06-13T06:08:50.713Z,601.88
2019-06-13T06:09:43.000Z,613.13
2019-06-13T06:10:42.029Z,624.38
2019-06-13T06:11:42.030Z,641.25
2019-06-13T06:12:42.038Z,652.50
2019-06-13T06:13:42.023Z,663.75
2019-06-13T06:14:42.022Z,669.38
2019-06-13T06:15:42.019Z,680.63
2019-06-13T06:16:42.017Z,691.88
2019-06-13T06:17:42.022Z,703.13
2019-06-13T06:18:42.021Z,708.75
2019-06-13T06:19:42.019Z,720.00
2019-06-13T06:20:42.012Z,725.63
2019-06-13T06:21:42.016Z,742.50
2019-06-13T06:22:42.013Z,748.13
2019-06-13T06:23:42.005Z,748.13
2019-06-13T06:24:42.007Z,759.38
2019-06-13T06:25:42.005Z,765.00
2019-06-13T06:26:42.013Z,781.88
2019-06-13T06:27:41.999Z,793.13
2019-06-13T06:28:41.997Z,793.13
2019-06-13T06:29:42.025Z,798.75
2019-06-13T06:30:41.997Z,798.75
2019-06-13T06:31:42.067Z,810.00
2019-06-13T06:32:41.991Z,821.25
2019-06-13T06:33:41.990Z,832.50
2019-06-13T06:34:41.990Z,832.50
2019-06-13T06:35:41.989Z,765.00
2019-06-13T06:36:41.990Z,832.50
2019-06-13T06:37:42.005Z,855.00
2019-06-13T06:38:41.984Z,866.25
2019-06-13T06:39:53.245Z,871.88
2019-06-13T06:40:41.981Z,866.25
2019-06-13T06:41:41.980Z,860.63
2019-06-13T06:42:41.977Z,810.00
2019-06-13T06:43:41.978Z,905.63
2019-06-13T06:44:41.989Z,905.63
2019-06-13T06:45:41.972Z,916.88
2019-06-13T06:46:41.972Z,916.88
2019-06-13T06:47:41.970Z,928.13
2019-06-13T06:48:41.967Z,939.38
2019-06-13T06:49:41.966Z,950.63
2019-06-13T06:50:41.966Z,956.25
2019-06-13T06:51:41.964Z,967.50
2019-06-13T06:52:41.965Z,990.00
2019-06-13T06:53:41.958Z,1001.25
2019-06-13T06:54:41.956Z,821.25
2019-06-13T06:55:41.955Z,939.38
2019-06-13T06:56:41.985Z,922.50
2019-06-13T06:57:41.969Z,900.00
2019-06-13T06:58:41.967Z,1057.50
2019-06-13T06:59:41.949Z,770.63
2019-06-13T07:00:41.954Z,1068.75
2019-06-13T07:01:41.944Z,1063.13
2019-06-13T07:02:41.947Z,1040.63
2019-06-13T07:03:41.941Z,1068.75
2019-06-13T07:04:41.940Z,1063.13
2019-06-13T07:05:41.936Z,1096.88
2019-06-13T07:06:41.936Z,1096.88
2019-06-13T07:07:41.932Z,1108.13
2019-06-13T07:08:41.932Z,1119.38
2019-06-13T07:09:41.929Z,1130.63
2019-06-13T07:10:41.928Z,1085.63
2019-06-13T07:11:41.930Z,1108.13
2019-06-13T07:12:41.953Z,1125.00
2019-06-13T07:13:41.926Z,1057.50
2019-06-13T07:14:41.921Z,877.50
2019-06-13T07:15:41.921Z,855.00
2019-06-13T07:16:41.917Z,883.13
2019-06-13T07:17:41.926Z,1091.25
2019-06-13T07:18:41.915Z,1119.38
2019-06-13T07:19:41.910Z,1158.75
2019-06-13T07:20:41.912Z,1096.88
2019-06-13T07:21:41.909Z,1113.75
2019-06-13T07:22:41.905Z,1119.38
2019-06-13T07:23:41.906Z,838.13
2019-06-13T07:24:41.899Z,450.00
2019-06-13T07:25:41.898Z,585.00
2019-06-13T07:26:41.891Z,590.63
2019-06-13T07:27:41.887Z,624.38
2019-06-13T07:28:41.883Z,900.00
2019-06-13T07:29:41.878Z,916.88
2019-06-13T07:30:41.876Z,753.75
2019-06-13T07:31:41.869Z,708.75
2019-06-13T07:32:41.865Z,781.88
2019-06-13T07:33:41.981Z,798.75
2019-06-13T07:34:41.878Z,720.00
2019-06-13T07:35:41.848Z,922.50
2019-06-13T07:36:41.841Z,1383.75
2019-06-13T07:37:41.838Z,1355.63
2019-06-13T07:38:41.836Z,1423.13
2019-06-13T07:39:41.828Z,1428.75
2019-06-13T07:40:41.823Z,1473.75
2019-06-13T07:41:41.818Z,1507.50
2019-06-13T07:42:41.815Z,1518.75
2019-06-13T07:43:41.811Z,1546.88
2019-06-13T07:44:41.808Z,1541.25
2019-06-13T07:45:41.804Z,1395.00
2019-06-13T07:46:41.805Z,1563.75
2019-06-13T07:47:43.353Z,1507.50
2019-06-13T07:48:41.796Z,1620.00
2019-06-13T07:49:41.792Z,1490.63
2019-06-13T07:50:41.789Z,1501.88
2019-06-13T07:51:41.788Z,1513.13
2019-06-13T07:52:41.784Z,1546.88
2019-06-13T07:53:41.778Z,1490.63
2019-06-13T07:54:41.776Z,1456.88
2019-06-13T07:55:41.783Z,1479.38
2019-06-13T07:56:41.770Z,1496.25
2019-06-13T07:57:41.769Z,1383.75
2019-06-13T07:58:41.764Z,1293.75
2019-06-13T07:59:41.761Z,1260.00
2019-06-13T08:00:41.760Z,1170.00
2019-06-13T08:01:41.761Z,1192.50
2019-06-13T08:02:41.752Z,1248.75
2019-06-13T08:03:41.760Z,1276.88
2019-06-13T08:04:41.753Z,1080.00
2019-06-13T08:05:41.739Z,1046.25
2019-06-13T08:06:45.778Z,961.88
2019-06-13T08:07:41.732Z,939.38
2019-06-13T08:08:41.728Z,900.00
2019-06-13T08:09:41.724Z,810.00
2019-06-13T08:10:52.140Z,1316.25
2019-06-13T08:11:41.715Z,1383.75
2019-06-13T08:12:41.731Z,1130.63
2019-06-13T08:13:41.717Z,1074.38
2019-06-13T08:14:41.700Z,1361.25
2019-06-13T08:15:41.756Z,1586.25
2019-06-13T08:16:41.720Z,1620.00
2019-06-13T08:17:41.677Z,1597.50
2019-06-13T08:18:41.674Z,1603.13
2019-06-13T08:19:41.671Z,635.63
2019-06-13T08:20:41.728Z,1659.38
2019-06-13T08:21:41.666Z,1608.75
2019-06-13T08:22:41.653Z,1715.63
2019-06-13T08:23:41.649Z,1721.25
2019-06-13T08:24:41.642Z,2041.88
2019-06-13T08:25:41.697Z,1665.00
2019-06-13T08:26:41.635Z,1665.00
2019-06-13T08:27:42.007Z,1963.13
2019-06-13T08:28:41.640Z,1963.13
2019-06-13T08:29:41.624Z,1816.88
2019-06-13T08:30:41.645Z,1890.00
2019-06-13T08:31:41.615Z,1738.13
2019-06-13T08:32:43.196Z,1726.88
2019-06-13T08:33:41.641Z,1816.88
2019-06-13T08:34:41.895Z,810.00
2019-06-13T08:35:41.604Z,1693.13
2019-06-13T08:36:41.876Z,675.00
2019-06-13T08:37:41.594Z,1968.75
2019-06-13T08:38:41.589Z,607.50
2019-06-13T08:39:41.585Z,523.13
2019-06-13T08:40:41.580Z,590.63
2019-06-13T08:41:41.575Z,1631.25
2019-06-13T08:42:41.575Z,624.38
2019-06-13T08:43:41.608Z,675.00
2019-06-13T08:44:41.563Z,630.00
2019-06-13T08:45:41.556Z,562.50
2019-06-13T08:46:41.556Z,798.75
2019-06-13T08:47:41.544Z,1108.13
2019-06-13T08:48:59.050Z,410.63
2019-06-13T08:49:41.558Z,1175.63
2019-06-13T08:50:41.522Z,1580.63
2019-06-13T08:51:41.524Z,1468.13
2019-06-13T08:52:41.529Z,1749.38
2019-06-13T08:53:41.505Z,1698.75
2019-06-13T08:54:41.517Z,500.63
2019-06-13T08:55:41.500Z,1698.75
2019-06-13T08:56:41.485Z,1918.13
2019-06-13T08:57:41.488Z,635.63
2019-06-13T08:58:41.480Z,2115.00
2019-06-13T08:59:44.646Z,1766.25
2019-06-13T09:00:42.184Z,933.75
2019-06-13T09:01:41.982Z,663.75
2019-06-13T09:02:41.984Z,540.00
2019-06-13T09:03:41.461Z,607.50
2019-06-13T09:04:41.474Z,646.88
2019-06-13T09:05:41.519Z,618.75
2019-06-13T09:06:41.447Z,624.38
2019-06-13T09:07:46.112Z,562.50
2019-06-13T09:08:41.407Z,483.75
2019-06-13T09:09:41.408Z,472.50
2019-06-13T09:10:41.394Z,1996.88
2019-06-13T09:11:44.762Z,1974.38
2019-06-13T09:12:41.389Z,1535.63
2019-06-13T09:13:41.385Z,1310.63
2019-06-13T09:14:41.364Z,1220.63
2019-06-13T09:15:41.360Z,1518.75
2019-06-13T09:16:42.281Z,1271.25
2019-06-13T09:17:41.392Z,1501.88
2019-06-13T09:18:41.354Z,1575.00
2019-06-13T09:19:41.351Z,1350.00
2019-06-13T09:20:41.323Z,1485.00
2019-06-13T09:21:41.323Z,1563.75
2019-06-13T09:22:42.325Z,1546.88
2019-06-13T09:23:41.328Z,1687.50
2019-06-13T09:24:41.299Z,720.00
2019-06-13T09:25:41.300Z,1518.75
2019-06-13T09:26:41.295Z,1456.88
2019-06-13T09:27:41.280Z,1732.50
2019-06-13T09:28:41.337Z,1670.63
2019-06-13T09:29:41.266Z,2176.88
2019-06-13T09:30:41.258Z,2216.25
2019-06-13T09:31:41.526Z,2176.88
2019-06-13T09:33:00.253Z,2210.63
2019-06-13T09:33:41.247Z,1878.75
2019-06-13T09:34:41.235Z,1912.50
2019-06-13T09:35:41.531Z,2058.75
2019-06-13T09:36:41.498Z,2008.13
2019-06-13T09:37:41.217Z,2098.13
2019-06-13T09:38:45.108Z,1541.25
2019-06-13T09:39:41.207Z,2030.63
2019-06-13T09:40:42.474Z,2109.38
2019-06-13T09:42:04.279Z,2137.50
2019-06-13T09:42:41.192Z,2182.50
2019-06-13T09:43:41.464Z,2013.75
2019-06-13T09:44:41.193Z,2289.38
2019-06-13T09:45:43.519Z,2351.25
2019-06-13T09:46:41.407Z,2407.50
2019-06-13T09:47:42.096Z,2463.75
2019-06-13T09:48:41.210Z,2514.38
2019-06-13T09:49:41.236Z,2137.50
2019-06-13T09:50:48.959Z,2418.75
2019-06-13T09:51:41.947Z,2407.50
2019-06-13T09:52:41.845Z,2413.13
2019-06-13T09:53:43.478Z,2356.88
2019-06-13T09:54:57.637Z,2323.13
2019-06-13T09:55:41.138Z,2340.00
2019-06-13T09:56:41.127Z,2385.00
2019-06-13T09:57:41.150Z,2435.63
2019-06-13T09:58:41.374Z,2475.00
2019-06-13T09:59:41.652Z,2480.63
2019-06-13T10:00:41.116Z,2508.75
2019-06-13T10:01:42.063Z,2390.63
2019-06-13T10:02:41.114Z,2497.50
2019-06-13T10:03:42.160Z,2486.25
2019-06-13T10:04:41.302Z,1861.88
2019-06-13T10:05:41.250Z,1136.25
2019-06-13T10:06:41.090Z,1248.75
2019-06-13T10:07:41.086Z,916.88
2019-06-13T10:08:41.168Z,810.00
2019-06-13T10:09:41.205Z,798.75
2019-06-13T10:10:41.288Z,866.25
2019-06-13T10:11:41.205Z,1231.88
2019-06-13T10:12:47.811Z,2919.38
2019-06-13T10:13:42.892Z,3026.25
2019-06-13T10:14:41.373Z,1406.25
2019-06-13T10:15:41.432Z,900.00
2019-06-13T10:16:41.042Z,787.50
2019-06-13T10:17:41.598Z,894.38
2019-06-13T10:18:41.470Z,911.25
2019-06-13T10:19:41.023Z,753.75
2019-06-13T10:20:41.016Z,815.63
2019-06-13T10:21:41.039Z,967.50
2019-06-13T10:22:41.011Z,1507.50
2019-06-13T10:23:41.419Z,1507.50
2019-06-13T10:25:01.026Z,1771.88
2019-06-13T10:25:40.985Z,1766.25
2019-06-13T10:26:40.982Z,1344.38
2019-06-13T10:27:41.806Z,1198.13
2019-06-13T10:28:40.965Z,1085.63
2019-06-13T10:29:40.968Z,1141.88
2019-06-13T10:30:41.296Z,1293.75
2019-06-13T10:31:42.318Z,1631.25
2019-06-13T10:32:41.543Z,1873.13
2019-06-13T10:33:41.496Z,2193.75
2019-06-13T10:34:40.922Z,1935.00
2019-06-13T10:35:40.922Z,2306.25
2019-06-13T10:36:40.910Z,2160.00
2019-06-13T10:37:40.904Z,2103.75
2019-06-13T10:38:49.176Z,2491.88
2019-06-13T10:39:40.898Z,2053.13
2019-06-13T10:40:40.988Z,3048.75
2019-06-13T10:41:41.316Z,3127.50
2019-06-13T10:43:01.854Z,1260.00
2019-06-13T10:43:43.109Z,883.13
2019-06-13T10:44:40.861Z,1035.00
2019-06-13T10:45:41.242Z,1018.13
2019-06-13T10:46:41.879Z,2463.75
2019-06-13T10:47:45.076Z,1209.38
2019-06-13T10:48:40.846Z,1023.75
2019-06-13T10:49:40.830Z,2733.75
2019-06-13T10:50:40.822Z,2874.38
2019-06-13T10:51:40.814Z,1282.50
2019-06-13T10:52:41.190Z,2880.00
2019-06-13T10:53:40.804Z,1845.00
2019-06-13T10:54:42.648Z,1383.75
2019-06-13T10:55:40.801Z,1181.25
2019-06-13T10:56:41.064Z,1282.50
2019-06-13T10:57:40.782Z,1636.88
2019-06-13T10:58:40.777Z,1395.00
2019-06-13T10:59:40.769Z,956.25
2019-06-13T11:00:41.179Z,843.75
2019-06-13T11:01:40.751Z,770.63
2019-06-13T11:02:40.754Z,658.13
2019-06-13T11:03:41.588Z,646.88
2019-06-13T11:04:40.805Z,635.63
2019-06-13T11:05:40.722Z,573.75
2019-06-13T11:06:40.955Z,517.50
2019-06-13T11:07:40.864Z,523.13
2019-06-13T11:08:40.708Z,579.38
2019-06-13T11:09:40.838Z,675.00
2019-06-13T11:10:40.678Z,804.38
2019-06-13T11:11:40.701Z,2013.75
2019-06-13T11:12:40.664Z,1659.38
2019-06-13T11:13:40.657Z,1766.25
2019-06-13T11:14:40.648Z,1203.75
2019-06-13T11:15:40.894Z,900.00
2019-06-13T11:16:53.892Z,916.88
2019-06-13T11:17:43.665Z,900.00
2019-06-13T11:18:40.617Z,815.63
2019-06-13T11:19:40.658Z,691.88
2019-06-13T11:20:40.677Z,624.38
2019-06-13T11:21:40.771Z,601.88
2019-06-13T11:22:40.599Z,607.50
2019-06-13T11:23:44.617Z,607.50
2019-06-13T11:24:40.562Z,551.25
2019-06-13T11:25:40.617Z,461.25
2019-06-13T11:26:40.789Z,382.50
2019-06-13T11:27:40.541Z,343.13
2019-06-13T11:28:40.527Z,331.88
2019-06-13T11:29:40.519Z,331.88
2019-06-13T11:30:40.513Z,337.50
2019-06-13T11:31:40.546Z,337.50
2019-06-13T11:32:40.941Z,337.50
2019-06-13T11:33:40.496Z,309.38
2019-06-13T11:34:40.531Z,292.50
2019-06-13T11:35:40.862Z,303.75
2019-06-13T11:36:41.259Z,348.75
2019-06-13T11:37:41.257Z,438.75
2019-06-13T11:38:40.596Z,585.00
2019-06-13T11:39:43.237Z,832.50
2019-06-13T11:40:40.408Z,973.13
2019-06-13T11:41:40.398Z,1878.75
2019-06-13T11:42:41.054Z,1344.38
2019-06-13T11:43:40.671Z,1096.88
2019-06-13T11:44:40.376Z,1136.25
2019-06-13T11:45:40.711Z,2874.38
2019-06-13T11:46:40.343Z,1642.50
2019-06-13T11:47:41.271Z,939.38
2019-06-13T11:48:40.324Z,888.75
2019-06-13T11:49:40.372Z,911.25
2019-06-13T11:50:41.963Z,928.13
2019-06-13T11:51:40.436Z,1051.88
2019-06-13T11:52:41.645Z,2323.13
2019-06-13T11:53:40.995Z,1867.50
2019-06-13T11:54:40.266Z,1181.25
2019-06-13T11:55:40.259Z,888.75
2019-06-13T11:56:40.580Z,860.63
2019-06-13T11:57:40.266Z,2351.25
2019-06-13T11:58:40.229Z,877.50
2019-06-13T11:59:40.414Z,770.63
2019-06-13T12:00:44.534Z,697.50
2019-06-13T12:01:41.231Z,697.50
2019-06-13T12:02:40.728Z,815.63
2019-06-13T12:03:40.194Z,3290.63
2019-06-13T12:04:40.914Z,3706.88
2019-06-13T12:05:40.167Z,3661.88
2019-06-13T12:06:40.779Z,3318.75
2019-06-13T12:07:42.194Z,849.38
2019-06-13T12:08:40.393Z,618.75
2019-06-13T12:09:40.195Z,590.63
2019-06-13T12:10:40.142Z,641.25
2019-06-13T12:11:40.567Z,697.50
2019-06-13T12:12:41.007Z,826.88
2019-06-13T12:14:00.821Z,939.38
2019-06-13T12:14:41.433Z,860.63
2019-06-13T12:15:40.253Z,1231.88
2019-06-13T12:16:43.835Z,1546.88
2019-06-13T12:17:40.169Z,1209.38
2019-06-13T12:18:40.167Z,1091.25
2019-06-13T12:19:40.497Z,922.50
2019-06-13T12:20:40.048Z,838.13
2019-06-13T12:21:40.222Z,798.75
2019-06-13T12:22:40.595Z,815.63
2019-06-13T12:23:40.030Z,832.50
2019-06-13T12:24:40.579Z,826.88
2019-06-13T12:25:40.079Z,776.25
2019-06-13T12:26:40.315Z,720.00
2019-06-13T12:27:40.232Z,720.00
2019-06-13T12:28:40.255Z,759.38
2019-06-13T12:29:40.061Z,815.63
2019-06-13T12:30:40.049Z,911.25
2019-06-13T12:31:40.593Z,3616.88
2019-06-13T12:32:42.412Z,900.00
2019-06-13T12:33:41.136Z,736.88
2019-06-13T12:34:40.154Z,630.00
2019-06-13T12:35:41.076Z,556.88
2019-06-13T12:36:39.993Z,545.63